Time;durP1;ratioP1;P1;durP2;ratioP2;P2;SDS_P1;SDS_P2;PMS_P1;PMS_P2;Temp;Humidity;BMP_temperature;BMP_pressure;BME280_temperature;BME280_humidity;BME280_pressure;Samples;Min_cycle;Max_cycle;Signal;HPM_P1;HPM_P2
2022/11/22 00:00:44;;;;;;;9.43;7.43;;;2.70;95.80;;;2.39;85.74;96154.75;5029433;28;20461;-74
2022/11/22 00:03:13;;;;;;;11.10;7.43;;;2.70;95.80;;;2.46;86.26;96155.53;5040666;28;20453;-73
2022/11/22 00:05:40;;;;;;;11.20;8.80;;;2.70;95.40;;;2.61;85.29;96146.47;5015724;28;20464;-74
2022/11/22 00:08:08;;;;;;;9.47;7.47;;;2.80;94.80;;;2.66;84.57;96141.34;5042787;28;21030;-73
2022/11/22 00:10:35;;;;;;;10.13;8.00;;;2.80;94.60;;;2.62;85.26;96137.44;5027595;28;20494;-72
2022/11/22 00:13:03;;;;;;;10.57;9.47;;;2.80;94.40;;;2.62;85.28;96129.44;5025498;28;20465;-73
2022/11/22 00:15:30;;;;;;;13.90;8.97;;;2.80;94.50;;;2.66;84.79;96122.69;5021921;28;20475;-72
2022/11/22 00:17:58;;;;;;;9.00;8.10;;;2.80;94.40;;;2.67;84.87;96118.97;5028036;28;20544;-73
2022/11/22 00:20:26;;;;;;;11.50;9.17;;;2.80;94.30;;;2.60;85.36;96110.19;5043097;28;20524;-72
2022/11/22 00:22:56;;;;;;;12.80;8.57;;;2.80;94.70;;;2.52;85.10;96103.22;5028300;28;20793;-73
2022/11/22 00:25:23;;;;;;;9.57;7.83;;;2.80;93.90;;;2.64;85.76;96103.38;5027719;28;20456;-73
2022/11/22 00:27:50;;;;;;;11.70;8.83;;;2.90;94.40;;;2.69;84.71;96099.06;5029196;28;20452;-73
2022/11/22 00:30:18;;;;;;;12.00;8.63;;;2.90;94.10;;;2.70;84.77;96113.22;5028866;28;20430;-72
2022/11/22 00:32:45;;;;;;;10.67;8.40;;;2.90;94.10;;;2.75;83.91;96121.38;5028582;28;20954;-72
2022/11/22 00:35:13;;;;;;;13.37;9.60;;;3.00;93.70;;;2.82;83.79;96108.03;5033388;28;20451;-74
2022/11/22 00:37:42;;;;;;;11.80;8.07;;;3.00;93.20;;;2.65;84.41;96091.69;5026977;28;20573;-73
2022/11/22 00:40:10;;;;;;;11.10;8.60;;;3.00;93.00;;;2.79;84.29;96113.78;5029101;28;20468;-73
2022/11/22 00:42:38;;;;;;;11.20;9.33;;;3.10;92.80;;;2.86;83.81;96116.44;5029137;28;20453;-73
2022/11/22 00:45:06;;;;;;;11.30;9.10;;;3.10;92.90;;;2.76;83.86;96107.03;5026272;28;20462;-72
2022/11/22 00:47:34;;;;;;;10.97;8.67;;;3.10;92.40;;;2.74;84.50;96108.28;5031148;28;20453;-73
2022/11/22 00:50:01;;;;;;;9.40;8.40;;;3.10;92.60;;;2.88;83.51;96103.69;5043454;28;20527;-73
2022/11/22 00:52:28;;;;;;;10.13;8.73;;;3.10;92.10;;;2.79;83.42;96090.59;5027886;28;20461;-74
2022/11/22 00:54:57;;;;;;;9.57;8.57;;;3.10;92.00;;;2.70;84.26;96089.22;5025862;28;21014;-72
2022/11/22 00:57:24;;;;;;;10.87;9.17;;;3.10;92.20;;;2.62;84.22;96089.44;5026922;28;20543;-73
2022/11/22 00:59:51;;;;;;;8.83;7.83;;;3.10;92.10;;;2.71;84.17;96090.03;5027430;28;20473;-73
2022/11/22 01:02:19;;;;;;;9.53;8.53;;;3.10;92.50;;;2.34;84.89;96023.94;5045817;28;20500;-73
2022/11/22 01:04:46;;;;;;;10.60;8.13;;;3.00;92.70;;;2.69;84.87;96087.59;5044507;28;20464;-73
2022/11/22 01:07:13;;;;;;;9.13;8.10;;;3.00;92.40;;;2.81;84.05;96080.56;5033162;28;20457;-76
2022/11/22 01:09:40;;;;;;;8.30;7.40;;;3.00;93.10;;;2.72;83.62;96087.16;5032571;28;20442;-75
2022/11/22 01:12:09;;;;;;;11.10;7.50;;;3.10;92.00;;;2.64;83.78;96080.22;5032277;28;20494;-71
2022/11/22 01:14:36;;;;;;;7.33;6.63;;;3.10;91.90;;;2.75;83.68;96081.38;5031564;28;20458;-73
2022/11/22 01:17:04;;;;;;;7.27;5.83;;;3.10;91.90;;;2.88;83.17;96071.69;5030706;28;21023;-73
2022/11/22 01:19:31;;;;;;;7.13;6.20;;;3.10;92.00;;;2.93;82.31;96078.00;5046787;28;20496;-71
2022/11/22 01:21:58;;;;;;;9.37;6.87;;;3.20;91.60;;;2.90;82.73;96065.09;5032148;28;20462;-73
2022/11/22 01:24:25;;;;;;;6.63;5.80;;;3.20;91.30;;;2.82;82.72;96078.69;5030130;28;20457;-74
2022/11/22 01:26:53;;;;;;;6.37;5.50;;;3.20;91.40;;;2.77;83.43;96087.31;5036966;28;20453;-74
2022/11/22 01:29:21;;;;;;;5.27;4.73;;;3.20;91.10;;;2.90;82.77;96077.63;5030090;28;20519;-73
2022/11/22 01:31:48;;;;;;;6.53;4.77;;;3.20;91.10;;;2.71;83.20;96068.69;5026275;28;20511;-73
2022/11/22 01:34:16;;;;;;;6.40;5.60;;;3.20;90.90;;;2.77;82.90;96065.19;5044457;28;20498;-74
2022/11/22 01:36:45;;;;;;;6.20;5.23;;;3.20;90.90;;;3.01;82.35;96074.28;5037802;28;20466;-72
2022/11/22 01:39:14;;;;;;;7.10;5.20;;;3.20;90.70;;;2.98;81.79;96072.03;5024269;28;20450;-73
2022/11/22 01:41:41;;;;;;;5.00;4.50;;;3.30;90.70;;;2.99;81.76;96065.66;5027206;28;20457;-72
2022/11/22 01:44:22;;;;;;;6.80;4.77;;;3.20;90.50;;;2.42;82.07;95983.72;5029015;28;20472;-74
2022/11/22 01:46:54;;;;;;;6.40;4.50;;;3.30;90.50;;;2.87;81.89;96064.72;5043307;28;20453;-74
2022/11/22 01:49:27;;;;;;;4.40;4.00;;;3.30;90.20;;;2.86;81.79;96047.88;5023764;28;20458;-72
2022/11/22 01:52:00;;;;;;;4.57;4.17;;;3.30;90.20;;;2.97;81.48;96057.06;5042224;28;20847;-75
2022/11/22 01:54:32;;;;;;;4.50;3.90;;;3.30;89.70;;;3.00;81.20;96064.63;5027181;28;20634;-72
2022/11/22 01:57:06;;;;;;;7.53;4.50;;;3.30;89.90;;;2.76;82.14;96053.69;5030989;28;20496;-74
2022/11/22 01:59:37;;;;;;;7.83;4.30;;;3.30;90.00;;;2.87;82.00;96060.19;5049745;28;20861;-73
2022/11/22 02:02:06;;;;;;;4.63;3.93;;;3.20;90.10;;;2.91;81.60;96065.91;5039769;28;20469;-74
2022/11/22 02:04:35;;;;;;;5.77;4.10;;;3.20;89.60;;;2.89;81.64;96070.66;5058555;28;20467;-72
2022/11/22 02:07:08;;;;;;;6.07;4.37;;;3.20;90.00;;;2.91;81.53;96063.25;5047377;28;20450;-73
2022/11/22 02:09:37;;;;;;;5.87;3.57;;;3.20;90.20;;;2.81;81.80;96063.72;5044216;28;20469;-73
2022/11/22 02:12:08;;;;;;;4.57;3.23;;;3.10;90.50;;;2.81;81.78;96061.06;5033697;28;20811;-73
2022/11/22 02:14:39;;;;;;;3.97;3.57;;;3.10;90.10;;;2.77;81.95;96049.97;5046678;28;20988;-72
2022/11/22 02:17:06;;;;;;;6.30;4.30;;;3.10;90.20;;;2.78;82.16;96046.28;5026309;28;20577;-73
2022/11/22 02:19:41;;;;;;;3.90;3.57;;;3.10;90.20;;;2.80;81.52;96033.53;5027583;28;20479;-72
2022/11/22 02:22:23;;;;;;;3.63;3.33;;;3.20;90.00;;;2.97;81.18;96023.19;5029663;28;20548;-72
2022/11/22 02:24:56;;;;;;;8.00;3.53;;;3.20;90.00;;;3.06;80.66;96014.94;5024781;28;20456;-73
2022/11/22 02:27:25;;;;;;;3.60;3.30;;;3.30;90.00;;;3.00;80.91;96027.28;5027930;28;20469;-72
2022/11/22 02:29:52;;;;;;;4.90;4.10;;;3.30;89.60;;;3.01;80.16;96026.25;5023444;28;20531;-72
2022/11/22 02:32:20;;;;;;;4.23;3.67;;;3.30;89.50;;;3.09;80.08;96047.31;5024838;28;20450;-73
2022/11/22 02:34:49;;;;;;;5.10;3.80;;;3.30;88.90;;;3.09;80.23;96044.66;5026764;28;20459;-73
2022/11/22 02:37:22;;;;;;;4.80;3.80;;;3.30;88.20;;;3.23;79.37;96057.91;5027153;28;20489;-72
2022/11/22 02:39:56;;;;;;;7.17;3.57;;;3.40;88.60;;;3.22;79.56;96077.63;5027238;28;20511;-73
2022/11/22 02:42:26;;;;;;;8.30;4.03;;;3.30;88.70;;;3.23;79.52;96079.25;5028236;28;20448;-74
2022/11/22 02:44:54;;;;;;;4.17;3.77;;;3.30;88.80;;;3.19;79.65;96084.22;5029009;28;20445;-73
2022/11/22 02:47:21;;;;;;;6.30;4.70;;;3.40;88.30;;;3.17;80.00;96075.59;5025390;28;20511;-74
2022/11/22 02:49:48;;;;;;;4.33;3.40;;;3.50;88.10;;;3.38;78.87;96071.75;5026973;28;20493;-73
2022/11/22 02:52:17;;;;;;;9.33;4.20;;;3.60;88.00;;;3.64;79.04;96087.75;5042447;28;20457;-74
2022/11/22 02:54:44;;;;;;;5.40;3.70;;;3.70;87.60;;;3.66;78.07;96089.19;5025460;28;20524;-73
2022/11/22 02:57:12;;;;;;;4.50;3.77;;;3.70;86.90;;;3.87;78.02;96092.50;5025902;28;20477;-73
2022/11/22 02:59:41;;;;;;;3.77;3.33;;;3.80;86.90;;;3.82;77.43;96078.97;5027364;28;20552;-74
2022/11/22 03:02:08;;;;;;;5.97;3.80;;;3.90;86.10;;;3.63;77.83;96080.78;5027332;28;20457;-73
2022/11/22 03:04:35;;;;;;;8.13;4.50;;;3.90;85.70;;;3.56;78.44;96072.84;5022331;28;21132;-73
2022/11/22 03:07:03;;;;;;;6.10;3.20;;;3.80;85.70;;;3.62;78.81;96061.28;5026965;28;20533;-73
2022/11/22 03:09:30;;;;;;;4.37;3.67;;;3.90;85.80;;;3.56;78.29;96070.16;5025928;28;21148;-73
2022/11/22 03:11:58;;;;;;;3.77;3.37;;;3.80;85.90;;;3.46;78.72;96067.19;5026478;28;20449;-72
2022/11/22 03:14:26;;;;;;;4.23;3.40;;;3.80;86.00;;;3.43;78.67;96062.28;5025500;28;20852;-72
2022/11/22 03:16:54;;;;;;;3.90;3.60;;;3.80;85.80;;;3.49;78.67;96077.41;5022217;28;20664;-73
2022/11/22 03:19:22;;;;;;;4.13;3.10;;;3.80;85.90;;;3.37;79.14;96072.78;5026957;28;20496;-72
2022/11/22 03:21:49;;;;;;;4.17;3.30;;;3.80;85.90;;;3.26;79.56;96078.81;5023729;28;20555;-72
2022/11/22 03:24:18;;;;;;;4.23;3.60;;;3.70;86.00;;;3.43;78.89;96083.66;5026162;28;20504;-73
2022/11/22 03:26:48;;;;;;;5.00;3.93;;;3.70;86.20;;;3.36;79.45;96084.50;5020627;28;20460;-74
2022/11/22 03:29:15;;;;;;;4.00;3.60;;;3.70;86.40;;;3.51;79.71;96096.72;5042339;28;20484;-72
2022/11/22 03:31:43;;;;;;;5.40;3.23;;;3.80;86.70;;;3.56;79.52;96094.19;5028098;28;20465;-73
2022/11/22 03:34:13;;;;;;;6.33;3.67;;;3.80;86.60;;;3.61;78.86;96097.06;5029709;28;20809;-73
2022/11/22 03:36:40;;;;;;;4.33;3.90;;;3.90;86.40;;;3.67;78.52;96079.34;5041335;28;20519;-74
2022/11/22 03:39:07;;;;;;;4.37;3.83;;;3.90;86.50;;;3.71;78.40;96085.03;5030185;28;20461;-74
2022/11/22 03:41:34;;;;;;;4.73;4.00;;;4.00;85.60;;;3.43;79.37;96089.78;5030392;28;20922;-74
2022/11/22 03:44:02;;;;;;;4.90;3.63;;;3.90;85.70;;;3.60;79.16;96082.06;5028499;28;20926;-73
2022/11/22 03:46:29;;;;;;;3.33;3.00;;;3.90;86.00;;;3.69;78.72;96088.75;5028281;28;20449;-73
2022/11/22 03:48:56;;;;;;;4.90;4.00;;;3.90;86.30;;;3.76;78.66;96079.88;5029316;28;20873;-74
2022/11/22 03:51:25;;;;;;;4.80;3.10;;;3.90;86.20;;;3.27;77.76;96011.06;5029183;28;20442;-74
2022/11/22 03:53:52;;;;;;;3.83;3.40;;;4.00;85.80;;;3.52;79.24;96082.31;5030000;28;20445;-73
2022/11/22 03:56:20;;;;;;;5.10;3.60;;;3.90;85.80;;;3.31;80.15;96087.00;5027799;28;21306;-72
2022/11/22 03:58:47;;;;;;;4.03;3.53;;;3.90;86.20;;;3.26;79.46;96020.09;5026318;28;20493;-75
2022/11/22 04:01:15;;;;;;;3.77;3.37;;;3.90;86.70;;;3.83;77.63;96077.94;5024551;28;20536;-75
2022/11/22 04:03:42;;;;;;;5.47;4.13;;;4.00;86.30;;;4.04;77.29;96084.72;5026036;28;20566;-76
2022/11/22 04:06:10;;;;;;;5.40;3.50;;;4.10;85.70;;;3.63;78.73;96102.97;5024533;28;20449;-75
2022/11/22 04:08:39;;;;;;;5.70;3.87;;;4.10;85.60;;;3.13;79.54;96030.91;5043003;28;20457;-73
2022/11/22 04:11:06;;;;;;;5.80;3.90;;;4.00;86.10;;;3.38;80.24;96093.09;5035607;28;20450;-73
2022/11/22 04:16:15;;;;;;;6.50;3.77;;;4.00;87.10;;;3.42;79.57;96077.47;5033652;28;20477;-75
2022/11/22 04:18:43;;;;;;;4.00;3.60;;;4.00;87.10;;;3.90;79.19;96118.78;5025392;28;20941;-75
2022/11/22 04:26:41;;;;;;;5.00;3.70;;;4.10;86.70;;;3.87;78.94;96132.59;5015510;28;20467;-74
2022/11/22 04:29:08;;;;;;;5.00;3.90;;;4.20;86.90;;;3.95;78.66;96134.97;5043914;28;20985;-73
2022/11/22 04:34:21;;;;;;;4.70;4.10;;;4.20;86.70;;;3.87;78.82;96131.75;5021698;28;20453;-72
2022/11/22 04:36:48;;;;;;;5.20;3.60;;;4.20;86.70;;;3.91;79.16;96127.59;5045067;28;20547;-75
2022/11/22 04:39:17;;;;;;;5.43;3.90;;;4.20;86.70;;;4.03;79.50;96135.75;5026520;28;20453;-73
2022/11/22 04:41:45;;;;;;;5.30;3.67;;;4.20;87.10;;;4.18;78.44;96135.38;5029337;28;20454;-73
2022/11/22 04:46:58;;;;;;;4.10;3.70;;;4.30;86.80;;;3.89;79.30;96117.16;5042440;28;20457;-72
2022/11/22 04:49:25;;;;;;;4.43;4.00;;;4.30;86.60;;;3.76;79.49;96109.25;5033237;28;20460;-72
2022/11/22 04:54:39;;;;;;;5.60;4.13;;;4.30;86.80;;;3.89;80.56;96127.84;5042897;28;20470;-71
2022/11/22 04:57:06;;;;;;;4.60;4.10;;;4.20;87.30;;;4.11;79.98;96130.09;5041241;28;20484;-73
2022/11/22 04:59:33;;;;;;;4.30;3.77;;;4.30;87.90;;;4.36;79.02;96129.25;5055214;28;20461;-73
2022/11/22 05:02:00;;;;;;;5.70;3.70;;;4.40;87.90;;;4.51;78.33;96131.53;5029617;28;20468;-73
2022/11/22 05:04:27;;;;;;;4.80;3.90;;;4.50;87.30;;;4.43;77.79;96124.63;5028094;28;22013;-73
2022/11/22 05:06:55;;;;;;;4.40;4.00;;;4.50;86.50;;;4.10;80.10;96117.78;5027346;28;20447;-73
2022/11/22 05:09:23;;;;;;;7.03;4.93;;;4.50;87.00;;;3.96;79.92;96119.78;5028397;28;20453;-72
2022/11/22 05:11:52;;;;;;;7.87;4.10;;;4.40;87.00;;;4.07;79.98;96126.25;5038850;28;20509;-73
2022/11/22 05:14:19;;;;;;;5.10;4.07;;;4.40;87.40;;;4.32;79.15;96134.22;5025555;28;20481;-75
2022/11/22 05:16:47;;;;;;;5.47;3.90;;;4.50;87.30;;;4.39;78.18;96124.25;5029892;28;20469;-72
2022/11/22 05:19:14;;;;;;;6.87;3.80;;;4.50;87.20;;;4.48;78.13;96130.16;5027341;28;20463;-72
2022/11/22 05:21:41;;;;;;;5.57;4.17;;;4.50;87.90;;;4.39;79.07;96126.13;5037660;28;20942;-73
2022/11/22 05:24:08;;;;;;;5.10;4.20;;;4.60;87.30;;;3.71;79.02;96052.97;5033017;28;20528;-72
2022/11/22 05:26:37;;;;;;;5.63;4.47;;;4.60;87.00;;;4.19;79.63;96129.84;5030242;28;20461;-72
2022/11/22 05:29:08;;;;;;;6.07;4.50;;;4.50;87.20;;;4.23;79.70;96125.66;5030693;28;20468;-72
2022/11/22 05:31:38;;;;;;;4.50;4.10;;;4.50;87.70;;;4.40;79.58;96119.72;5029089;28;20457;-73
2022/11/22 05:34:06;;;;;;;4.60;3.90;;;4.50;88.10;;;4.62;79.34;96124.63;5043697;28;20942;-73
2022/11/22 05:36:35;;;;;;;6.47;3.87;;;4.60;88.40;;;4.76;78.09;96117.28;5030762;28;20470;-73
2022/11/22 05:39:03;;;;;;;8.90;4.33;;;4.70;87.80;;;4.58;78.93;96121.59;5045820;28;20507;-69
2022/11/22 05:41:30;;;;;;;5.07;4.00;;;4.70;87.20;;;4.67;78.55;96127.47;5029990;28;20459;-69
2022/11/22 05:43:57;;;;;;;7.67;4.67;;;4.70;87.20;;;4.45;78.53;96132.44;5028556;28;20500;-70
2022/11/22 05:46:28;;;;;;;5.10;3.70;;;4.70;87.20;;;4.46;79.46;96137.56;5024001;28;20504;-70
2022/11/22 05:48:57;;;;;;;3.87;3.47;;;4.60;88.00;;;4.49;79.43;96121.09;5028581;28;20514;-71
2022/11/22 05:51:28;;;;;;;4.80;4.13;;;4.60;88.30;;;4.60;78.27;96134.72;5027329;28;20462;-71
2022/11/22 05:53:55;;;;;;;6.80;4.63;;;4.60;88.20;;;4.60;78.44;96137.41;5026810;28;20450;-73
2022/11/22 05:56:24;;;;;;;5.20;3.90;;;4.60;88.30;;;4.45;79.37;96137.78;5041788;28;20455;-71
2022/11/22 05:58:53;;;;;;;5.70;4.70;;;4.60;88.30;;;4.60;78.55;96148.09;5025581;28;20834;-70
2022/11/22 06:01:22;;;;;;;6.00;5.40;;;4.70;88.10;;;4.57;78.77;96140.53;5043250;28;20856;-69
2022/11/22 06:03:51;;;;;;;8.40;4.60;;;4.70;88.40;;;4.77;79.07;96146.47;5026177;28;20841;-70
2022/11/22 06:06:19;;;;;;;5.17;4.00;;;4.70;88.20;;;4.74;78.47;96152.25;5037511;28;20454;-69
2022/11/22 06:08:47;;;;;;;9.73;5.27;;;4.80;87.70;;;4.54;79.29;96147.97;5018789;28;20517;-70
2022/11/22 06:11:17;;;;;;;7.83;4.93;;;4.80;88.00;;;4.67;79.39;96163.03;5037142;28;20822;-68
2022/11/22 06:13:46;;;;;;;5.20;4.13;;;4.80;88.30;;;4.64;79.04;96135.94;5020755;28;20474;-72
2022/11/22 06:16:14;;;;;;;6.73;4.47;;;4.80;88.20;;;4.79;78.11;96160.47;5014978;28;20450;-73
2022/11/22 06:18:44;;;;;;;7.37;3.80;;;4.90;88.10;;;4.51;80.12;96163.63;5036105;28;20535;-74
2022/11/22 06:21:15;;;;;;;5.30;4.20;;;4.90;88.40;;;4.57;79.62;96168.13;5036385;28;21737;-71
2022/11/22 06:23:43;;;;;;;5.80;4.73;;;4.80;88.20;;;4.83;79.11;96152.78;5017287;28;20544;-73
2022/11/22 06:26:13;;;;;;;6.10;4.60;;;5.00;88.80;;;4.90;78.80;96166.91;5017548;28;20503;-72
2022/11/22 06:28:41;;;;;;;6.43;4.47;;;5.00;88.60;;;5.00;78.44;96158.34;5020497;28;20462;-75
2022/11/22 06:31:12;;;;;;;4.83;4.37;;;5.10;88.00;;;5.15;78.35;96154.44;5022690;28;20461;-74
2022/11/22 06:33:42;;;;;;;8.83;4.60;;;5.20;88.10;;;5.30;77.27;96178.97;5025589;28;20455;-70
2022/11/22 06:36:13;;;;;;;4.93;4.20;;;5.20;87.20;;;5.23;77.76;96176.38;5036302;28;20520;-70
2022/11/22 06:38:42;;;;;;;6.70;4.97;;;5.20;87.10;;;5.03;78.14;96189.22;5023893;28;20485;-71
2022/11/22 06:41:11;;;;;;;6.40;4.87;;;5.20;87.40;;;5.10;78.47;96182.72;5023478;28;20465;-71
2022/11/22 06:43:40;;;;;;;6.20;4.20;;;5.20;87.20;;;5.23;77.87;96186.25;5026645;28;20512;-70
2022/11/22 06:46:08;;;;;;;5.53;4.90;;;5.20;88.30;;;5.33;79.28;96188.41;5019784;28;20539;-69
2022/11/22 06:48:38;;;;;;;9.00;5.40;;;5.40;90.00;;;5.30;78.17;96178.97;5023020;28;20558;-69
2022/11/22 06:51:09;;;;;;;6.23;5.00;;;5.40;88.20;;;5.23;78.10;96173.69;5041942;28;20461;-69
2022/11/22 06:53:39;;;;;;;6.93;4.93;;;5.40;87.70;;;4.63;79.01;96131.63;5023781;28;21031;-70
2022/11/22 06:56:08;;;;;;;6.07;4.77;;;5.30;87.80;;;4.93;79.92;96190.53;5020633;28;20462;-70
2022/11/22 06:58:36;;;;;;;8.07;5.60;;;5.20;87.90;;;4.79;78.56;96117.66;5022764;28;21054;-69
2022/11/22 07:01:06;;;;;;;7.13;5.17;;;5.40;88.40;;;5.02;79.11;96180.34;5010265;28;20972;-70
2022/11/22 07:03:35;;;;;;;7.00;4.97;;;5.40;88.20;;;5.19;79.24;96203.81;5035038;28;20507;-71
2022/11/22 07:06:03;;;;;;;6.90;6.20;;;5.40;88.10;;;5.17;79.39;96197.88;5020576;28;20466;-71
2022/11/22 07:08:30;;;;;;;6.93;5.97;;;5.40;88.40;;;5.04;79.70;96202.34;5033980;28;20481;-70
2022/11/22 07:11:03;;;;;;;6.73;5.10;;;5.30;88.30;;;5.41;79.43;96203.34;5019147;28;20450;-72
2022/11/22 07:13:31;;;;;;;6.30;4.90;;;5.50;90.20;;;5.43;78.95;96211.97;5017780;28;20442;-70
2022/11/22 07:16:01;;;;;;;8.47;5.33;;;5.60;89.80;;;5.39;79.52;96225.81;5031383;28;20550;-71
2022/11/22 07:18:29;;;;;;;6.87;5.03;;;5.60;88.70;;;5.37;78.81;96217.16;5026223;28;20488;-71
2022/11/22 07:21:01;;;;;;;6.30;5.10;;;5.60;88.40;;;5.35;80.58;96189.78;5034883;28;20976;-72
2022/11/22 07:23:29;;;;;;;6.87;4.70;;;5.60;90.00;;;5.81;79.06;96229.56;5025328;28;20453;-73
2022/11/22 07:25:56;;;;;;;15.07;4.60;;;5.80;89.00;;;5.68;78.13;96225.22;5030119;28;20946;-71
2022/11/22 07:28:26;;;;;;;8.73;6.10;;;5.90;87.40;;;5.78;77.56;96241.56;5029964;28;20458;-71
2022/11/22 07:30:53;;;;;;;8.10;5.80;;;5.90;87.00;;;5.69;77.32;96245.59;5015368;28;20473;-71
2022/11/22 07:33:21;;;;;;;9.40;6.00;;;5.90;86.70;;;5.55;78.39;96242.31;5031539;28;21223;-70
2022/11/22 07:35:48;;;;;;;7.30;6.05;;;5.80;86.50;;;5.73;77.71;96245.97;5015872;28;20460;-71
2022/11/22 07:38:15;;;;;;;8.53;5.50;;;5.90;86.80;;;5.77;77.55;96256.03;5017536;28;20223;-71
2022/11/22 07:40:42;;;;;;;7.50;5.37;;;5.90;86.70;;;5.88;77.61;96250.91;5019424;28;20466;-72
2022/11/22 07:43:09;;;;;;;11.30;5.60;;;6.00;86.50;;;5.88;77.57;96259.78;5018569;28;20871;-71
2022/11/22 07:45:38;;;;;;;8.57;5.40;;;6.00;86.40;;;6.06;77.27;96263.47;5014090;28;21235;-70
2022/11/22 07:48:07;;;;;;;9.97;5.37;;;6.10;86.60;;;5.95;77.88;96271.22;5016478;28;20460;-71
2022/11/22 07:50:34;;;;;;;7.07;5.00;;;6.20;86.70;;;6.01;77.95;96279.41;5013205;28;20466;-70
2022/11/22 07:53:01;;;;;;;7.40;4.80;;;6.20;86.70;;;6.03;78.04;96270.09;5028047;28;20969;-70
2022/11/22 07:55:30;;;;;;;6.33;5.17;;;6.20;87.00;;;6.05;77.65;96280.59;5035937;28;20516;-70
2022/11/22 07:58:00;;;;;;;5.63;4.90;;;6.20;86.90;;;5.98;77.20;96229.72;5038871;28;20474;-72
2022/11/22 08:00:28;;;;;;;8.27;5.07;;;6.30;87.20;;;6.16;77.85;96295.06;5029569;28;20463;-72
2022/11/22 08:02:58;;;;;;;7.87;5.60;;;6.40;86.90;;;6.28;77.74;96287.06;5019367;28;20462;-71
2022/11/22 08:05:25;;;;;;;7.57;5.10;;;6.40;87.00;;;6.20;77.23;96302.44;5020363;28;20554;-72
2022/11/22 08:07:53;;;;;;;7.43;5.50;;;6.40;86.60;;;6.09;78.08;96296.00;5013135;28;20958;-70
2022/11/22 08:10:21;;;;;;;9.60;5.00;;;6.40;86.90;;;6.39;77.41;96310.41;5032185;28;20454;-72
2022/11/22 08:12:49;;;;;;;8.63;5.20;;;6.50;86.90;;;6.39;77.43;96307.72;5039283;28;20454;-75
2022/11/22 08:15:17;;;;;;;7.97;5.13;;;6.50;86.70;;;6.44;77.29;96313.19;5021758;28;20470;-70
2022/11/22 08:17:45;;;;;;;7.77;4.50;;;6.60;86.50;;;6.52;77.38;96310.19;5028020;28;21012;-76
2022/11/22 08:20:14;;;;;;;6.07;4.60;;;6.60;86.80;;;6.84;76.04;96316.28;5040661;28;20450;-76
2022/11/22 08:22:42;;;;;;;7.30;4.47;;;6.80;86.10;;;6.95;75.41;96326.22;5027850;28;20461;-73
2022/11/22 08:25:12;;;;;;;7.93;5.40;;;6.90;85.60;;;6.84;76.00;96329.72;5022952;28;20454;-75
2022/11/22 08:27:40;;;;;;;7.00;4.23;;;6.90;85.40;;;6.95;74.88;96335.06;5040854;28;20519;-72
2022/11/22 08:30:08;;;;;;;5.83;4.80;;;7.00;85.50;;;6.47;75.67;96269.84;5024465;28;20495;-72
2022/11/22 08:32:36;;;;;;;5.73;4.70;;;6.90;85.50;;;6.55;76.71;96334.94;5022111;28;20478;-74
2022/11/22 08:35:13;;;;;;;7.07;4.83;;;6.90;85.40;;;6.82;76.27;96329.13;5040055;28;20450;-78
2022/11/22 08:37:42;;;;;;;8.60;4.50;;;6.90;85.80;;;7.30;74.86;96328.03;5022996;28;20463;-70
2022/11/22 08:40:11;;;;;;;8.13;3.93;;;7.10;85.60;;;7.23;74.33;96324.69;5040906;28;20442;-72
2022/11/22 08:42:38;;;;;;;8.57;4.83;;;7.20;85.10;;;7.41;73.60;96321.00;5021482;28;20964;-70
2022/11/22 08:45:07;;;;;;;7.80;4.63;;;7.30;84.70;;;7.61;72.70;96317.94;5016263;28;20802;-71
2022/11/22 08:47:34;;;;;;;11.30;4.80;;;7.50;84.40;;;7.80;72.41;96317.75;5033956;28;20873;-70
2022/11/22 08:50:03;;;;;;;6.67;4.63;;;7.70;84.00;;;7.65;72.56;96327.16;5013406;28;20612;-69
2022/11/22 08:52:30;;;;;;;9.77;4.80;;;7.70;83.40;;;7.51;72.88;96326.63;5022484;28;20458;-79
2022/11/22 08:54:59;;;;;;;8.90;5.20;;;7.70;83.30;;;7.46;72.96;96317.63;5021230;28;20459;-72
2022/11/22 08:57:26;;;;;;;9.47;5.00;;;7.60;83.50;;;7.33;73.48;96330.25;5019581;28;20459;-67
2022/11/22 08:59:53;;;;;;;7.57;5.17;;;7.60;83.40;;;7.24;74.01;96320.94;5017000;28;20470;-68
2022/11/22 09:02:21;;;;;;;7.73;4.90;;;7.50;83.60;;;7.08;74.19;96291.06;5016754;28;20508;-68
2022/11/22 09:04:48;;;;;;;8.00;4.17;;;7.50;83.70;;;7.60;73.56;96329.75;5015684;28;20454;-69
2022/11/22 09:07:15;;;;;;;8.80;4.37;;;7.50;84.00;;;7.82;72.92;96333.66;5015776;28;21124;-68
2022/11/22 09:09:42;;;;;;;6.93;4.13;;;7.70;83.70;;;7.70;72.85;96331.81;5019008;28;20451;-67
2022/11/22 09:12:11;;;;;;;9.20;4.07;;;7.80;83.40;;;8.04;72.18;96340.03;5022157;28;20462;-67
2022/11/22 09:14:39;;;;;;;9.60;4.10;;;7.90;83.30;;;8.12;71.55;96341.50;5023643;28;20460;-67
2022/11/22 09:17:06;;;;;;;6.23;4.23;;;8.10;82.90;;;8.36;70.42;96344.06;5036978;28;20960;-68
2022/11/22 09:19:33;;;;;;;9.63;3.57;;;8.30;82.70;;;8.01;71.42;96350.44;5024818;28;20485;-69
2022/11/22 09:22:01;;;;;;;6.40;3.57;;;8.20;82.10;;;8.31;70.60;96349.38;5015648;28;20452;-68
2022/11/22 09:24:28;;;;;;;8.03;3.63;;;8.30;82.20;;;8.32;70.74;96351.00;5033078;28;20452;-69
2022/11/22 09:26:55;;;;;;;7.17;3.50;;;8.30;82.20;;;8.31;70.48;96357.44;5019984;28;20519;-69
2022/11/22 09:29:24;;;;;;;15.93;4.63;;;8.40;81.90;;;8.21;70.97;96361.56;5018036;28;20450;-68
2022/11/22 09:31:51;;;;;;;8.83;3.63;;;8.30;81.80;;;8.02;70.50;96365.50;5013536;28;20938;-70
2022/11/22 09:34:19;;;;;;;7.70;3.37;;;8.20;81.90;;;8.18;70.64;96364.75;5018764;28;20470;-69
2022/11/22 09:36:46;;;;;;;8.73;3.60;;;8.20;81.80;;;8.26;70.28;96357.31;5019268;28;20456;-72
2022/11/22 09:39:13;;;;;;;13.10;3.73;;;8.30;81.70;;;8.32;70.31;96353.69;5016365;28;20717;-71
2022/11/22 09:42:11;;;;;;;6.20;3.47;;;8.30;81.80;;;8.36;70.02;96349.44;5029240;28;20462;-68
2022/11/22 09:44:52;;;;;;;9.07;3.63;;;8.40;81.40;;;8.47;69.55;96343.19;5032602;28;20462;-67
2022/11/22 09:47:33;;;;;;;11.17;4.20;;;8.50;81.30;;;8.58;69.41;96356.88;5030710;28;20556;-69
2022/11/22 09:50:11;;;;;;;5.27;3.30;;;8.50;81.50;;;8.58;69.03;96354.19;5020821;28;21142;-68
2022/11/22 09:52:44;;;;;;;8.77;3.60;;;8.50;81.20;;;8.75;68.94;96355.00;5022920;28;20978;-68
2022/11/22 09:55:22;;;;;;;8.63;4.20;;;8.60;81.30;;;8.18;70.51;96361.22;5022527;28;20535;-68
2022/11/22 09:57:56;;;;;;;9.47;3.60;;;8.30;81.00;;;8.33;70.04;96355.31;5036812;28;20457;-69
2022/11/22 10:00:27;;;;;;;8.20;3.53;;;8.40;81.00;;;8.24;70.50;96362.97;5021150;28;20475;-67
2022/11/22 10:03:00;;;;;;;13.27;3.83;;;8.30;81.40;;;8.04;69.58;96302.38;5019012;28;20475;-67
2022/11/22 10:05:34;;;;;;;8.60;3.97;;;8.40;81.00;;;8.42;68.67;96353.88;5016021;28;20454;-70
2022/11/22 10:08:11;;;;;;;6.87;3.57;;;8.50;80.80;;;8.40;69.27;96353.28;5019555;28;20902;-70
2022/11/22 10:10:42;;;;;;;7.30;3.53;;;8.60;80.80;;;8.50;68.78;96356.19;5021548;28;20528;-70
2022/11/22 10:13:15;;;;;;;8.27;4.53;;;8.60;80.60;;;8.38;69.37;96363.47;5035533;28;20469;-69
2022/11/22 10:15:54;;;;;;;10.20;3.80;;;8.60;80.60;;;8.42;70.04;96367.34;5032098;28;20458;-70
2022/11/22 10:18:27;;;;;;;6.20;3.50;;;8.60;80.90;;;8.14;69.62;96373.53;5038571;28;20474;-72
2022/11/22 10:20:55;;;;;;;12.40;4.47;;;8.50;80.70;;;8.14;70.74;96374.38;5035636;28;21005;-69
2022/11/22 10:23:24;;;;;;;9.83;4.10;;;8.40;80.80;;;8.36;70.01;96371.81;5022001;28;20557;-69
2022/11/22 10:25:57;;;;;;;8.43;3.50;;;8.50;81.20;;;8.53;69.06;96381.00;5030567;28;20472;-70
2022/11/22 10:28:34;;;;;;;11.80;4.07;;;8.60;80.80;;;8.67;68.53;96379.63;5014280;28;20821;-71
2022/11/22 10:31:15;;;;;;;8.00;3.80;;;8.60;80.80;;;8.91;68.14;96382.19;5010874;28;20467;-71
2022/11/22 10:33:50;;;;;;;8.43;3.70;;;8.80;80.80;;;8.94;68.29;96373.59;5018218;28;20863;-71
2022/11/22 10:36:29;;;;;;;8.03;4.30;;;8.90;80.30;;;9.10;67.57;96377.34;5013020;28;20484;-69
2022/11/22 10:39:21;;;;;;;12.70;3.20;;;9.10;80.30;;;8.91;65.01;96380.28;5030220;28;20932;-70
2022/11/22 10:42:15;;;;;;;5.47;2.73;;;9.20;78.00;;;8.66;64.11;96383.38;5033365;28;20467;-69
2022/11/22 10:44:53;;;;;;;10.07;2.27;;;9.00;77.00;;;8.75;62.79;96376.53;5021018;28;20490;-70
2022/11/22 10:47:44;;;;;;;8.17;1.87;;;8.90;75.70;;;8.49;63.56;96389.53;5019981;28;20459;-70
2022/11/22 10:50:20;;;;;;;5.47;1.73;;;8.80;75.20;;;8.63;62.56;96378.47;5013896;28;20469;-70
2022/11/22 10:52:59;;;;;;;3.90;1.77;;;8.80;75.10;;;8.45;62.84;96391.06;5013983;28;20508;-70
2022/11/22 10:55:48;;;;;;;10.03;2.47;;;8.80;74.90;;;8.57;62.61;96396.41;5032111;28;20460;-70
2022/11/22 10:58:31;;;;;;;5.23;2.20;;;8.80;74.50;;;8.69;62.28;96399.03;5015324;28;20481;-70